sensor_id;sensor_type;location;lat;lon;timestamp;pressure;altitude;pressure_sealevel;temperature;humidity
9784;BME280;4931;44.874;-1.092;2022-11-20T00:03:10;101541.47;;;5.62;100.00
9784;BME280;4931;44.874;-1.092;2022-11-20T00:07:56;101531.94;;;5.53;100.00
9784;BME280;4931;44.874;-1.092;2022-11-20T00:12:42;101545.63;;;5.46;100.00
9784;BME280;4931;44.874;-1.092;2022-11-20T00:17:27;101539.31;;;5.46;100.00
9784;BME280;4931;44.874;-1.092;2022-11-20T00:22:16;101542.50;;;5.43;100.00
9784;BME280;4931;44.874;-1.092;2022-11-20T00:27:01;101530.63;;;5.19;100.00
9784;BME280;4931;44.874;-1.092;2022-11-20T00:31:47;101521.13;;;5.28;100.00
9784;BME280;4931;44.874;-1.092;2022-11-20T00:36:33;101513.25;;;5.38;100.00
9784;BME280;4931;44.874;-1.092;2022-11-20T00:41:23;101514.00;;;5.45;100.00
9784;BME280;4931;44.874;-1.092;2022-11-20T00:46:12;101519.16;;;5.54;100.00
9784;BME280;4931;44.874;-1.092;2022-11-20T00:50:58;101517.19;;;5.61;100.00
9784;BME280;4931;44.874;-1.092;2022-11-20T00:55:43;101512.19;;;5.58;100.00
9784;BME280;4931;44.874;-1.092;2022-11-20T01:00:39;101526.25;;;5.73;100.00
9784;BME280;4931;44.874;-1.092;2022-11-20T01:05:24;101523.28;;;5.75;100.00
9784;BME280;4931;44.874;-1.092;2022-11-20T01:10:10;101517.75;;;5.81;100.00
9784;BME280;4931;44.874;-1.092;2022-11-20T01:14:55;101514.59;;;5.85;100.00
9784;BME280;4931;44.874;-1.092;2022-11-20T01:19:43;101506.66;;;5.83;100.00
9784;BME280;4931;44.874;-1.092;2022-11-20T01:24:28;101506.56;;;5.90;100.00
9784;BME280;4931;44.874;-1.092;2022-11-20T01:29:15;101503.69;;;5.85;100.00
9784;BME280;4931;44.874;-1.092;2022-11-20T01:34:03;101495.81;;;5.95;100.00
9784;BME280;4931;44.874;-1.092;2022-11-20T01:38:54;101501.91;;;6.09;100.00
9784;BME280;4931;44.874;-1.092;2022-11-20T01:43:39;101499.06;;;6.04;100.00
9784;BME280;4931;44.874;-1.092;2022-11-20T01:48:27;101496.56;;;6.02;100.00
9784;BME280;4931;44.874;-1.092;2022-11-20T01:53:16;101496.38;;;6.15;100.00
9784;BME280;4931;44.874;-1.092;2022-11-20T01:58:06;101495.44;;;6.22;100.00
9784;BME280;4931;44.874;-1.092;2022-11-20T02:02:54;101494.63;;;6.21;100.00
9784;BME280;4931;44.874;-1.092;2022-11-20T02:07:41;101487.41;;;6.27;100.00
9784;BME280;4931;44.874;-1.092;2022-11-20T02:12:27;101488.13;;;6.34;100.00
9784;BME280;4931;44.874;-1.092;2022-11-20T02:17:27;101481.75;;;6.40;100.00
9784;BME280;4931;44.874;-1.092;2022-11-20T02:22:14;101475.47;;;6.40;100.00
9784;BME280;4931;44.874;-1.092;2022-11-20T02:27:08;101474.50;;;6.46;100.00
9784;BME280;4931;44.874;-1.092;2022-11-20T02:31:55;101466.69;;;6.38;100.00
9784;BME280;4931;44.874;-1.092;2022-11-20T02:36:43;101465.38;;;6.40;100.00
9784;BME280;4931;44.874;-1.092;2022-11-20T02:41:33;101455.78;;;6.38;100.00
9784;BME280;4931;44.874;-1.092;2022-11-20T02:46:21;101451.06;;;6.45;100.00
9784;BME280;4931;44.874;-1.092;2022-11-20T02:51:07;101450.25;;;6.68;100.00
9784;BME280;4931;44.874;-1.092;2022-11-20T02:55:53;101447.38;;;6.63;100.00
9784;BME280;4931;44.874;-1.092;2022-11-20T03:00:38;101442.66;;;6.70;100.00
9784;BME280;4931;44.874;-1.092;2022-11-20T03:05:26;101430.81;;;6.76;100.00
9784;BME280;4931;44.874;-1.092;2022-11-20T03:10:11;101426.31;;;6.70;100.00
9784;BME280;4931;44.874;-1.092;2022-11-20T03:14:56;101414.91;;;6.73;100.00
9784;BME280;4931;44.874;-1.092;2022-11-20T03:19:41;101411.59;;;6.83;100.00
9784;BME280;4931;44.874;-1.092;2022-11-20T03:24:29;101410.72;;;7.06;100.00
9784;BME280;4931;44.874;-1.092;2022-11-20T03:29:14;101396.78;;;6.91;100.00
9784;BME280;4931;44.874;-1.092;2022-11-20T03:34:00;101394.06;;;6.79;100.00
9784;BME280;4931;44.874;-1.092;2022-11-20T03:38:46;101376.72;;;6.73;100.00
9784;BME280;4931;44.874;-1.092;2022-11-20T03:43:34;101362.53;;;6.71;100.00
9784;BME280;4931;44.874;-1.092;2022-11-20T03:48:20;101365.94;;;6.78;100.00
9784;BME280;4931;44.874;-1.092;2022-11-20T03:53:05;101340.13;;;6.69;100.00
9784;BME280;4931;44.874;-1.092;2022-11-20T03:57:50;101345.91;;;6.85;100.00
9784;BME280;4931;44.874;-1.092;2022-11-20T04:02:38;101343.41;;;6.83;100.00
9784;BME280;4931;44.874;-1.092;2022-11-20T04:07:23;101346.03;;;6.78;100.00
9784;BME280;4931;44.874;-1.092;2022-11-20T04:12:08;101345.53;;;6.81;100.00
9784;BME280;4931;44.874;-1.092;2022-11-20T04:16:53;101334.78;;;6.74;100.00
9784;BME280;4931;44.874;-1.092;2022-11-20T04:21:41;101331.25;;;6.62;100.00
9784;BME280;4931;44.874;-1.092;2022-11-20T04:26:28;101344.94;;;6.91;100.00
9784;BME280;4931;44.874;-1.092;2022-11-20T04:31:15;101342.34;;;6.72;100.00
9784;BME280;4931;44.874;-1.092;2022-11-20T04:36:02;101335.25;;;6.71;100.00
9784;BME280;4931;44.874;-1.092;2022-11-20T04:40:50;101336.91;;;6.72;100.00
9784;BME280;4931;44.874;-1.092;2022-11-20T04:45:35;101336.03;;;6.95;100.00
9784;BME280;4931;44.874;-1.092;2022-11-20T04:50:20;101333.44;;;6.89;100.00
9784;BME280;4931;44.874;-1.092;2022-11-20T04:55:06;101335.78;;;6.97;100.00
9784;BME280;4931;44.874;-1.092;2022-11-20T04:59:54;101335.88;;;7.02;100.00
9784;BME280;4931;44.874;-1.092;2022-11-20T05:04:39;101335.31;;;7.00;100.00
9784;BME280;4931;44.874;-1.092;2022-11-20T05:09:25;101327.56;;;7.38;100.00
9784;BME280;4931;44.874;-1.092;2022-11-20T05:14:10;101325.38;;;7.23;100.00
9784;BME280;4931;44.874;-1.092;2022-11-20T05:18:58;101317.28;;;7.28;100.00
9784;BME280;4931;44.874;-1.092;2022-11-20T05:23:44;101320.31;;;7.43;100.00
9784;BME280;4931;44.874;-1.092;2022-11-20T05:28:31;101305.25;;;7.41;100.00
9784;BME280;4931;44.874;-1.092;2022-11-20T05:33:16;101300.72;;;7.18;100.00
9784;BME280;4931;44.874;-1.092;2022-11-20T05:38:04;101313.88;;;7.21;100.00
9784;BME280;4931;44.874;-1.092;2022-11-20T05:42:49;101312.03;;;7.38;100.00
9784;BME280;4931;44.874;-1.092;2022-11-20T05:47:35;101306.84;;;7.25;100.00
9784;BME280;4931;44.874;-1.092;2022-11-20T05:52:20;101279.00;;;6.94;100.00
9784;BME280;4931;44.874;-1.092;2022-11-20T05:57:08;101292.69;;;7.11;100.00
9784;BME280;4931;44.874;-1.092;2022-11-20T06:01:53;101293.91;;;7.03;100.00
9784;BME280;4931;44.874;-1.092;2022-11-20T06:06:38;101290.31;;;7.14;100.00
9784;BME280;4931;44.874;-1.092;2022-11-20T06:11:23;101295.13;;;7.24;100.00
9784;BME280;4931;44.874;-1.092;2022-11-20T06:16:13;101292.09;;;7.09;100.00
9784;BME280;4931;44.874;-1.092;2022-11-20T06:21:00;101294.72;;;7.04;100.00
9784;BME280;4931;44.874;-1.092;2022-11-20T06:25:46;101295.66;;;7.09;100.00
9784;BME280;4931;44.874;-1.092;2022-11-20T06:30:31;101276.81;;;7.08;100.00
9784;BME280;4931;44.874;-1.092;2022-11-20T06:35:19;101279.94;;;6.88;100.00
9784;BME280;4931;44.874;-1.092;2022-11-20T06:40:05;101275.19;;;6.95;100.00
9784;BME280;4931;44.874;-1.092;2022-11-20T06:44:51;101277.72;;;7.13;100.00
9784;BME280;4931;44.874;-1.092;2022-11-20T06:49:36;101273.88;;;6.97;100.00
9784;BME280;4931;44.874;-1.092;2022-11-20T06:54:24;101257.94;;;7.06;100.00
9784;BME280;4931;44.874;-1.092;2022-11-20T06:59:09;101255.34;;;7.00;100.00
9784;BME280;4931;44.874;-1.092;2022-11-20T07:03:55;101250.56;;;6.90;100.00
9784;BME280;4931;44.874;-1.092;2022-11-20T07:08:40;101250.16;;;6.98;100.00
9784;BME280;4931;44.874;-1.092;2022-11-20T07:13:28;101245.66;;;7.21;100.00
9784;BME280;4931;44.874;-1.092;2022-11-20T07:18:14;101208.31;;;7.38;100.00
9784;BME280;4931;44.874;-1.092;2022-11-20T07:22:59;101176.53;;;7.32;100.00
9784;BME280;4931;44.874;-1.092;2022-11-20T07:27:44;101202.50;;;7.52;100.00
9784;BME280;4931;44.874;-1.092;2022-11-20T07:32:32;101216.06;;;7.80;100.00
9784;BME280;4931;44.874;-1.092;2022-11-20T07:37:17;101207.94;;;7.86;100.00
9784;BME280;4931;44.874;-1.092;2022-11-20T07:42:03;101214.91;;;7.93;100.00
9784;BME280;4931;44.874;-1.092;2022-11-20T07:46:48;101231.09;;;8.00;100.00
9784;BME280;4931;44.874;-1.092;2022-11-20T07:51:36;101196.28;;;8.12;100.00
9784;BME280;4931;44.874;-1.092;2022-11-20T07:56:21;101210.03;;;8.18;100.00
9784;BME280;4931;44.874;-1.092;2022-11-20T08:01:07;101208.38;;;8.17;100.00
9784;BME280;4931;44.874;-1.092;2022-11-20T08:05:52;101216.06;;;8.20;100.00
9784;BME280;4931;44.874;-1.092;2022-11-20T08:10:40;101220.88;;;8.12;100.00
9784;BME280;4931;44.874;-1.092;2022-11-20T08:15:25;101216.00;;;8.14;100.00
9784;BME280;4931;44.874;-1.092;2022-11-20T08:20:10;101214.34;;;8.13;100.00
9784;BME280;4931;44.874;-1.092;2022-11-20T08:24:55;101205.84;;;8.32;100.00
9784;BME280;4931;44.874;-1.092;2022-11-20T08:29:43;101205.97;;;8.42;100.00
9784;BME280;4931;44.874;-1.092;2022-11-20T08:34:28;101200.03;;;8.45;100.00
9784;BME280;4931;44.874;-1.092;2022-11-20T08:39:14;101196.41;;;8.62;100.00
9784;BME280;4931;44.874;-1.092;2022-11-20T08:44:00;101199.25;;;8.72;100.00
9784;BME280;4931;44.874;-1.092;2022-11-20T08:48:49;101173.44;;;8.90;100.00
9784;BME280;4931;44.874;-1.092;2022-11-20T08:53:34;101177.78;;;8.86;100.00
9784;BME280;4931;44.874;-1.092;2022-11-20T08:58:19;101176.63;;;9.09;100.00
9784;BME280;4931;44.874;-1.092;2022-11-20T09:03:04;101174.38;;;9.01;100.00
9784;BME280;4931;44.874;-1.092;2022-11-20T09:07:55;101159.63;;;9.02;100.00
9784;BME280;4931;44.874;-1.092;2022-11-20T09:12:41;101144.00;;;9.03;100.00
9784;BME280;4931;44.874;-1.092;2022-11-20T09:17:26;101135.72;;;9.25;100.00
9784;BME280;4931;44.874;-1.092;2022-11-20T09:22:11;101112.59;;;9.48;100.00
9784;BME280;4931;44.874;-1.092;2022-11-20T09:27:01;101117.47;;;9.41;100.00
9784;BME280;4931;44.874;-1.092;2022-11-20T09:31:46;101135.41;;;9.59;100.00
9784;BME280;4931;44.874;-1.092;2022-11-20T09:36:32;101120.25;;;9.94;100.00
9784;BME280;4931;44.874;-1.092;2022-11-20T09:41:33;101119.31;;;10.31;100.00
9784;BME280;4931;44.874;-1.092;2022-11-20T09:46:29;101126.00;;;10.66;100.00
9784;BME280;4931;44.874;-1.092;2022-11-20T09:51:29;101079.88;;;10.48;100.00
9784;BME280;4931;44.874;-1.092;2022-11-20T09:56:17;101043.69;;;10.87;100.00
9784;BME280;4931;44.874;-1.092;2022-11-20T10:01:10;101033.00;;;11.01;100.00
9784;BME280;4931;44.874;-1.092;2022-11-20T10:06:00;101022.25;;;11.25;100.00
9784;BME280;4931;44.874;-1.092;2022-11-20T10:10:50;101025.00;;;11.20;100.00
9784;BME280;4931;44.874;-1.092;2022-11-20T10:15:43;101038.44;;;11.21;100.00
9784;BME280;4931;44.874;-1.092;2022-11-20T10:20:42;101051.59;;;11.40;100.00
9784;BME280;4931;44.874;-1.092;2022-11-20T10:25:37;101000.81;;;11.32;100.00
9784;BME280;4931;44.874;-1.092;2022-11-20T10:30:23;101011.25;;;11.30;100.00
9784;BME280;4931;44.874;-1.092;2022-11-20T10:35:18;101012.31;;;11.39;100.00
9784;BME280;4931;44.874;-1.092;2022-11-20T10:40:18;101002.50;;;11.23;100.00
9784;BME280;4931;44.874;-1.092;2022-11-20T10:45:16;100999.09;;;11.52;100.00
9784;BME280;4931;44.874;-1.092;2022-11-20T10:50:09;100993.63;;;11.46;100.00
9784;BME280;4931;44.874;-1.092;2022-11-20T10:55:23;100988.59;;;11.69;100.00
9784;BME280;4931;44.874;-1.092;2022-11-20T11:00:13;100978.72;;;11.63;100.00
9784;BME280;4931;44.874;-1.092;2022-11-20T11:05:07;100978.03;;;11.97;100.00
9784;BME280;4931;44.874;-1.092;2022-11-20T11:09:56;100958.16;;;12.10;100.00
9784;BME280;4931;44.874;-1.092;2022-11-20T11:14:47;100964.16;;;12.18;100.00
9784;BME280;4931;44.874;-1.092;2022-11-20T11:19:35;100974.47;;;12.36;100.00
9784;BME280;4931;44.874;-1.092;2022-11-20T11:24:22;100972.66;;;12.56;100.00
9784;BME280;4931;44.874;-1.092;2022-11-20T11:29:24;100983.94;;;12.89;100.00
9784;BME280;4931;44.874;-1.092;2022-11-20T11:34:14;101000.22;;;13.15;100.00
9784;BME280;4931;44.874;-1.092;2022-11-20T11:39:03;101029.22;;;13.36;100.00
9784;BME280;4931;44.874;-1.092;2022-11-20T11:43:52;101092.38;;;13.57;100.00
9784;BME280;4931;44.874;-1.092;2022-11-20T11:48:55;101113.13;;;13.49;100.00
9784;BME280;4931;44.874;-1.092;2022-11-20T11:53:42;101143.69;;;13.53;100.00
9784;BME280;4931;44.874;-1.092;2022-11-20T11:58:40;101138.69;;;13.55;100.00
9784;BME280;4931;44.874;-1.092;2022-11-20T12:03:29;101139.56;;;13.50;100.00
9784;BME280;4931;44.874;-1.092;2022-11-20T12:08:23;101155.19;;;13.60;100.00
9784;BME280;4931;44.874;-1.092;2022-11-20T12:13:20;101153.28;;;13.85;100.00
9784;BME280;4931;44.874;-1.092;2022-11-20T12:18:14;101147.94;;;13.93;100.00
9784;BME280;4931;44.874;-1.092;2022-11-20T12:23:04;101175.97;;;13.76;100.00
9784;BME280;4931;44.874;-1.092;2022-11-20T12:28:16;101177.69;;;13.72;100.00
9784;BME280;4931;44.874;-1.092;2022-11-20T12:33:22;101184.66;;;13.89;100.00
9784;BME280;4931;44.874;-1.092;2022-11-20T12:38:29;101193.66;;;14.24;100.00
9784;BME280;4931;44.874;-1.092;2022-11-20T12:43:19;101212.00;;;14.58;100.00
9784;BME280;4931;44.874;-1.092;2022-11-20T12:48:36;101255.63;;;14.37;100.00
9784;BME280;4931;44.874;-1.092;2022-11-20T12:53:33;101295.84;;;14.14;100.00
9784;BME280;4931;44.874;-1.092;2022-11-20T12:58:27;101291.69;;;14.16;100.00
9784;BME280;4931;44.874;-1.092;2022-11-20T13:03:47;101251.47;;;14.10;100.00
9784;BME280;4931;44.874;-1.092;2022-11-20T13:08:39;101232.16;;;14.10;100.00
9784;BME280;4931;44.874;-1.092;2022-11-20T13:13:30;101230.00;;;14.31;100.00
9784;BME280;4931;44.874;-1.092;2022-11-20T13:18:17;101240.09;;;14.17;100.00
9784;BME280;4931;44.874;-1.092;2022-11-20T13:23:05;101257.31;;;14.03;100.00
9784;BME280;4931;44.874;-1.092;2022-11-20T13:27:54;101264.16;;;13.82;100.00
9784;BME280;4931;44.874;-1.092;2022-11-20T13:32:48;101284.69;;;13.65;100.00
9784;BME280;4931;44.874;-1.092;2022-11-20T13:37:35;101297.63;;;13.70;100.00
9784;BME280;4931;44.874;-1.092;2022-11-20T13:42:27;101304.22;;;13.29;100.00
9784;BME280;4931;44.874;-1.092;2022-11-20T13:47:20;101281.94;;;13.20;100.00
9784;BME280;4931;44.874;-1.092;2022-11-20T13:52:30;101254.72;;;13.14;100.00
9784;BME280;4931;44.874;-1.092;2022-11-20T13:57:44;101247.91;;;13.01;100.00
9784;BME280;4931;44.874;-1.092;2022-11-20T14:02:32;101249.81;;;13.05;100.00
9784;BME280;4931;44.874;-1.092;2022-11-20T14:07:19;101261.84;;;13.20;100.00
9784;BME280;4931;44.874;-1.092;2022-11-20T14:12:15;101274.88;;;13.49;100.00
9784;BME280;4931;44.874;-1.092;2022-11-20T14:17:09;101288.66;;;13.49;100.00
9784;BME280;4931;44.874;-1.092;2022-11-20T14:22:14;101298.44;;;13.25;100.00
9784;BME280;4931;44.874;-1.092;2022-11-20T14:27:01;101303.06;;;13.35;100.00
9784;BME280;4931;44.874;-1.092;2022-11-20T14:31:52;101281.75;;;13.01;100.00
9784;BME280;4931;44.874;-1.092;2022-11-20T14:36:40;101282.81;;;13.10;100.00
9784;BME280;4931;44.874;-1.092;2022-11-20T14:41:27;101296.69;;;12.95;100.00
9784;BME280;4931;44.874;-1.092;2022-11-20T14:46:14;101273.66;;;12.75;100.00
9784;BME280;4931;44.874;-1.092;2022-11-20T14:51:00;101279.63;;;12.93;100.00
9784;BME280;4931;44.874;-1.092;2022-11-20T14:55:55;101282.44;;;12.77;100.00
9784;BME280;4931;44.874;-1.092;2022-11-20T15:00:40;101277.19;;;12.81;100.00
9784;BME280;4931;44.874;-1.092;2022-11-20T15:05:44;101302.81;;;12.76;100.00
9784;BME280;4931;44.874;-1.092;2022-11-20T15:10:30;101310.75;;;12.88;100.00
9784;BME280;4931;44.874;-1.092;2022-11-20T15:15:21;101313.31;;;12.64;100.00
9784;BME280;4931;44.874;-1.092;2022-11-20T15:20:12;101313.31;;;12.64;100.00
9784;BME280;4931;44.874;-1.092;2022-11-20T15:24:58;101307.34;;;12.41;100.00
9784;BME280;4931;44.874;-1.092;2022-11-20T15:29:43;101291.41;;;12.28;100.00
9784;BME280;4931;44.874;-1.092;2022-11-20T15:34:31;101298.28;;;12.25;100.00
9784;BME280;4931;44.874;-1.092;2022-11-20T15:39:16;101275.41;;;12.40;100.00
9784;BME280;4931;44.874;-1.092;2022-11-20T15:44:02;101294.69;;;12.25;100.00
9784;BME280;4931;44.874;-1.092;2022-11-20T15:48:51;101292.53;;;12.11;100.00
9784;BME280;4931;44.874;-1.092;2022-11-20T15:53:41;101283.47;;;12.06;100.00
9784;BME280;4931;44.874;-1.092;2022-11-20T15:58:27;101271.63;;;12.05;100.00
9784;BME280;4931;44.874;-1.092;2022-11-20T16:03:12;101279.06;;;12.00;100.00
9784;BME280;4931;44.874;-1.092;2022-11-20T16:07:58;101285.63;;;11.88;100.00
9784;BME280;4931;44.874;-1.092;2022-11-20T16:12:51;101269.72;;;11.80;100.00
9784;BME280;4931;44.874;-1.092;2022-11-20T16:17:49;101266.16;;;11.74;100.00
9784;BME280;4931;44.874;-1.092;2022-11-20T16:22:34;101257.91;;;11.69;100.00
9784;BME280;4931;44.874;-1.092;2022-11-20T16:27:19;101275.19;;;11.59;100.00
9784;BME280;4931;44.874;-1.092;2022-11-20T16:32:07;101270.81;;;11.48;100.00
9784;BME280;4931;44.874;-1.092;2022-11-20T16:36:54;101277.66;;;11.40;100.00
9784;BME280;4931;44.874;-1.092;2022-11-20T16:41:39;101273.81;;;11.31;100.00
9784;BME280;4931;44.874;-1.092;2022-11-20T16:46:26;101277.91;;;11.23;100.00
9784;BME280;4931;44.874;-1.092;2022-11-20T16:51:15;101293.25;;;11.09;100.00
9784;BME280;4931;44.874;-1.092;2022-11-20T16:56:08;101298.97;;;10.92;100.00
9784;BME280;4931;44.874;-1.092;2022-11-20T17:00:55;101318.06;;;10.66;100.00
9784;BME280;4931;44.874;-1.092;2022-11-20T17:05:40;101310.34;;;10.58;100.00
9784;BME280;4931;44.874;-1.092;2022-11-20T17:10:28;101315.75;;;10.48;100.00
9784;BME280;4931;44.874;-1.092;2022-11-20T17:15:13;101323.97;;;10.42;100.00
9784;BME280;4931;44.874;-1.092;2022-11-20T17:19:58;101323.97;;;10.42;100.00
9784;BME280;4931;44.874;-1.092;2022-11-20T17:24:43;101324.72;;;10.33;100.00
9784;BME280;4931;44.874;-1.092;2022-11-20T17:29:32;101323.84;;;10.27;100.00
9784;BME280;4931;44.874;-1.092;2022-11-20T17:34:22;101325.72;;;10.21;100.00
9784;BME280;4931;44.874;-1.092;2022-11-20T17:39:08;101318.53;;;10.15;100.00
9784;BME280;4931;44.874;-1.092;2022-11-20T17:43:55;101328.69;;;10.14;100.00
9784;BME280;4931;44.874;-1.092;2022-11-20T17:48:45;101321.41;;;9.93;100.00
9784;BME280;4931;44.874;-1.092;2022-11-20T17:53:33;101331.84;;;9.96;100.00
9784;BME280;4931;44.874;-1.092;2022-11-20T17:58:19;101333.94;;;9.84;100.00
9784;BME280;4931;44.874;-1.092;2022-11-20T18:03:04;101330.03;;;9.79;100.00
9784;BME280;4931;44.874;-1.092;2022-11-20T18:07:54;101329.50;;;9.77;100.00
9784;BME280;4931;44.874;-1.092;2022-11-20T18:12:39;101340.47;;;9.77;100.00
9784;BME280;4931;44.874;-1.092;2022-11-20T18:17:25;101340.97;;;9.74;100.00
9784;BME280;4931;44.874;-1.092;2022-11-20T18:22:11;101344.22;;;9.71;100.00
9784;BME280;4931;44.874;-1.092;2022-11-20T18:26:59;101347.19;;;9.64;100.00
9784;BME280;4931;44.874;-1.092;2022-11-20T18:31:44;101336.44;;;9.58;100.00
9784;BME280;4931;44.874;-1.092;2022-11-20T18:36:30;101340.03;;;9.63;100.00
9784;BME280;4931;44.874;-1.092;2022-11-20T18:41:17;101344.72;;;9.63;100.00
9784;BME280;4931;44.874;-1.092;2022-11-20T18:46:18;101349.06;;;9.59;100.00
9784;BME280;4931;44.874;-1.092;2022-11-20T18:51:04;101352.81;;;9.53;100.00
9784;BME280;4931;44.874;-1.092;2022-11-20T18:55:49;101367.03;;;9.50;100.00
9784;BME280;4931;44.874;-1.092;2022-11-20T19:00:34;101369.59;;;9.34;100.00
9784;BME280;4931;44.874;-1.092;2022-11-20T19:05:22;101350.78;;;9.16;100.00
9784;BME280;4931;44.874;-1.092;2022-11-20T19:10:08;101356.88;;;9.23;100.00
9784;BME280;4931;44.874;-1.092;2022-11-20T19:14:54;101355.34;;;9.32;100.00
9784;BME280;4931;44.874;-1.092;2022-11-20T19:19:39;101368.53;;;9.35;100.00
9784;BME280;4931;44.874;-1.092;2022-11-20T19:24:27;101376.09;;;9.28;100.00
9784;BME280;4931;44.874;-1.092;2022-11-20T19:29:13;101351.59;;;9.16;100.00
9784;BME280;4931;44.874;-1.092;2022-11-20T19:34:00;101348.34;;;9.19;100.00
9784;BME280;4931;44.874;-1.092;2022-11-20T19:38:47;101361.41;;;9.12;100.00
9784;BME280;4931;44.874;-1.092;2022-11-20T19:43:35;101356.88;;;9.01;100.00
9784;BME280;4931;44.874;-1.092;2022-11-20T19:48:20;101341.25;;;8.96;100.00
9784;BME280;4931;44.874;-1.092;2022-11-20T19:53:06;101336.31;;;8.98;100.00
9784;BME280;4931;44.874;-1.092;2022-11-20T19:57:52;101332.25;;;9.01;100.00
9784;BME280;4931;44.874;-1.092;2022-11-20T20:02:40;101327.50;;;8.91;100.00
9784;BME280;4931;44.874;-1.092;2022-11-20T20:07:25;101338.97;;;8.88;100.00
9784;BME280;4931;44.874;-1.092;2022-11-20T20:12:10;101333.47;;;8.88;100.00
9784;BME280;4931;44.874;-1.092;2022-11-20T20:16:56;101339.13;;;8.81;100.00
9784;BME280;4931;44.874;-1.092;2022-11-20T20:21:43;101339.31;;;8.74;100.00
9784;BME280;4931;44.874;-1.092;2022-11-20T20:26:30;101328.69;;;8.78;100.00
9784;BME280;4931;44.874;-1.092;2022-11-20T20:31:16;101326.59;;;8.63;100.00
9784;BME280;4931;44.874;-1.092;2022-11-20T20:36:02;101319.41;;;8.57;100.00
9784;BME280;4931;44.874;-1.092;2022-11-20T20:40:50;101327.75;;;8.67;100.00
9784;BME280;4931;44.874;-1.092;2022-11-20T20:45:36;101314.63;;;8.69;100.00
9784;BME280;4931;44.874;-1.092;2022-11-20T20:50:21;101318.31;;;8.58;100.00
9784;BME280;4931;44.874;-1.092;2022-11-20T20:55:07;101313.34;;;8.55;100.00
9784;BME280;4931;44.874;-1.092;2022-11-20T20:59:55;101323.13;;;8.51;100.00
9784;BME280;4931;44.874;-1.092;2022-11-20T21:04:40;101320.22;;;8.40;100.00
9784;BME280;4931;44.874;-1.092;2022-11-20T21:09:26;101318.59;;;8.39;100.00
9784;BME280;4931;44.874;-1.092;2022-11-20T21:14:11;101317.41;;;8.35;100.00
9784;BME280;4931;44.874;-1.092;2022-11-20T21:18:59;101308.91;;;8.31;100.00
9784;BME280;4931;44.874;-1.092;2022-11-20T21:23:45;101304.53;;;8.13;100.00
9784;BME280;4931;44.874;-1.092;2022-11-20T21:28:30;101297.31;;;8.24;100.00
9784;BME280;4931;44.874;-1.092;2022-11-20T21:33:16;101294.03;;;8.05;100.00
9784;BME280;4931;44.874;-1.092;2022-11-20T21:38:04;101271.25;;;7.82;100.00
9784;BME280;4931;44.874;-1.092;2022-11-20T21:42:49;101262.00;;;7.84;100.00
9784;BME280;4931;44.874;-1.092;2022-11-20T21:47:34;101251.22;;;7.94;100.00
9784;BME280;4931;44.874;-1.092;2022-11-20T21:52:19;101241.22;;;7.82;100.00
9784;BME280;4931;44.874;-1.092;2022-11-20T21:57:07;101238.72;;;7.98;100.00
9784;BME280;4931;44.874;-1.092;2022-11-20T22:01:52;101226.78;;;8.04;100.00
9784;BME280;4931;44.874;-1.092;2022-11-20T22:06:38;101214.88;;;8.10;100.00
9784;BME280;4931;44.874;-1.092;2022-11-20T22:11:23;101206.75;;;8.16;100.00
9784;BME280;4931;44.874;-1.092;2022-11-20T22:16:11;101210.03;;;8.18;100.00
9784;BME280;4931;44.874;-1.092;2022-11-20T22:20:56;101189.03;;;8.23;100.00
9784;BME280;4931;44.874;-1.092;2022-11-20T22:25:46;101192.88;;;8.22;100.00
9784;BME280;4931;44.874;-1.092;2022-11-20T22:30:31;101180.84;;;8.23;100.00
9784;BME280;4931;44.874;-1.092;2022-11-20T22:35:19;101175.84;;;8.15;100.00
9784;BME280;4931;44.874;-1.092;2022-11-20T22:40:06;101171.75;;;8.18;100.00
9784;BME280;4931;44.874;-1.092;2022-11-20T22:44:51;101164.97;;;8.20;100.00
9784;BME280;4931;44.874;-1.092;2022-11-20T22:49:36;101160.69;;;8.07;100.00
9784;BME280;4931;44.874;-1.092;2022-11-20T22:54:24;101130.28;;;7.98;100.00
9784;BME280;4931;44.874;-1.092;2022-11-20T22:59:09;101107.75;;;7.69;100.00
9784;BME280;4931;44.874;-1.092;2022-11-20T23:03:56;101090.22;;;7.65;100.00
9784;BME280;4931;44.874;-1.092;2022-11-20T23:08:42;101071.16;;;7.70;100.00
9784;BME280;4931;44.874;-1.092;2022-11-20T23:13:29;101069.03;;;7.72;100.00
9784;BME280;4931;44.874;-1.092;2022-11-20T23:18:19;101066.97;;;7.85;100.00
9784;BME280;4931;44.874;-1.092;2022-11-20T23:23:04;101064.84;;;7.87;100.00
9784;BME280;4931;44.874;-1.092;2022-11-20T23:27:49;101059.31;;;7.81;100.00
9784;BME280;4931;44.874;-1.092;2022-11-20T23:32:37;101035.81;;;7.80;100.00
9784;BME280;4931;44.874;-1.092;2022-11-20T23:37:22;101020.03;;;7.88;100.00
9784;BME280;4931;44.874;-1.092;2022-11-20T23:42:07;101034.28;;;7.90;100.00
9784;BME280;4931;44.874;-1.092;2022-11-20T23:46:53;101020.16;;;7.98;100.00
9784;BME280;4931;44.874;-1.092;2022-11-20T23:51:40;101011.75;;;8.05;100.00
9784;BME280;4931;44.874;-1.092;2022-11-20T23:56:26;101003.09;;;7.86;100.00
